createdAt,value
2019-05-09T00:01:16.862Z,33.02
2019-05-09T00:03:47.094Z,31.40
2019-05-09T00:06:17.253Z,29.05
2019-05-09T00:08:47.449Z,27.15
2019-05-09T00:11:17.648Z,20.92
2019-05-09T00:13:47.844Z,19.95
2019-05-09T00:16:17.959Z,16.85
2019-05-09T00:18:48.165Z,15.80
2019-05-09T00:21:26.195Z,17.17
2019-05-09T00:23:56.319Z,15.18
2019-05-09T00:26:26.517Z,16.48
2019-05-09T00:29:07.096Z,16.20
2019-05-09T00:31:38.870Z,19.37
2019-05-09T00:34:25.633Z,19.77
2019-05-09T00:36:55.715Z,18.02
2019-05-09T00:39:25.856Z,21.55
2019-05-09T00:41:55.992Z,21.27
2019-05-09T00:44:27.645Z,20.55
2019-05-09T00:47:04.070Z,19.70
2019-05-09T00:49:34.199Z,21.05
2019-05-09T00:52:04.618Z,30.07
2019-05-09T00:54:34.759Z,36.73
2019-05-09T00:57:04.862Z,49.83
2019-05-09T00:59:34.945Z,55.12
2019-05-09T01:02:05.315Z,58.35
2019-05-09T01:04:35.368Z,57.38
2019-05-09T01:07:05.669Z,62.78
2019-05-09T01:09:35.777Z,66.92
2019-05-09T01:12:05.997Z,66.50
2019-05-09T01:14:36.147Z,78.22
2019-05-09T01:17:06.169Z,76.37
2019-05-09T01:19:36.293Z,75.83
2019-05-09T01:22:06.421Z,65.25
2019-05-09T01:24:36.531Z,64.25
2019-05-09T01:27:06.723Z,52.45
2019-05-09T01:29:36.917Z,45.28
2019-05-09T01:32:08.663Z,42.08
2019-05-09T01:34:38.858Z,36.28
2019-05-09T01:37:10.532Z,33.55
2019-05-09T01:39:40.543Z,29.92
2019-05-09T01:42:10.703Z,28.80
2019-05-09T01:44:40.775Z,27.07
2019-05-09T01:47:10.958Z,31.65
2019-05-09T01:49:43.033Z,30.40
2019-05-09T01:52:13.800Z,29.18
2019-05-09T01:54:45.414Z,27.45
2019-05-09T01:57:16.605Z,27.30
2019-05-09T01:59:46.719Z,24.43
2019-05-09T02:02:17.367Z,22.40
2019-05-09T02:04:47.666Z,22.73
2019-05-09T02:07:17.757Z,22.40
2019-05-09T02:09:47.923Z,25.55
2019-05-09T02:12:17.995Z,26.20
2019-05-09T02:14:58.569Z,22.67
2019-05-09T02:17:35.730Z,25.75
2019-05-09T02:20:05.968Z,26.15
2019-05-09T02:22:36.561Z,25.88
2019-05-09T02:25:07.355Z,23.80
2019-05-09T02:27:37.423Z,24.23
2019-05-09T02:30:07.936Z,28.45
2019-05-09T02:32:38.644Z,25.82
2019-05-09T02:35:08.880Z,24.35
2019-05-09T02:37:39.263Z,24.32
2019-05-09T02:40:10.522Z,23.15
2019-05-09T02:42:40.834Z,24.12
2019-05-09T02:45:11.045Z,26.68
2019-05-09T02:47:41.122Z,25.48
2019-05-09T02:50:11.136Z,24.65
2019-05-09T02:52:41.300Z,26.97
2019-05-09T02:55:11.402Z,21.12
2019-05-09T02:57:41.497Z,27.50
2019-05-09T03:00:22.297Z,26.82
2019-05-09T03:02:59.881Z,27.45
2019-05-09T03:05:30.070Z,26.15
2019-05-09T03:08:01.281Z,21.90
2019-05-09T03:10:31.355Z,18.37
2019-05-09T03:13:01.568Z,23.32
2019-05-09T03:15:32.908Z,23.80
2019-05-09T03:18:03.126Z,20.62
2019-05-09T03:20:49.220Z,19.70
2019-05-09T03:23:19.386Z,20.20
2019-05-09T03:25:50.584Z,15.75
2019-05-09T03:28:38.807Z,15.63
2019-05-09T03:31:10.951Z,10.90
2019-05-09T03:33:41.217Z,10.03
2019-05-09T03:36:12.286Z,8.15
2019-05-09T03:38:42.361Z,7.62
2019-05-09T03:41:12.959Z,6.85
2019-05-09T03:43:43.035Z,7.72
2019-05-09T03:46:14.767Z,6.72
2019-05-09T03:48:52.537Z,7.12
2019-05-09T03:51:22.674Z,6.47
2019-05-09T03:53:52.880Z,8.35
2019-05-09T03:56:24.641Z,7.37
2019-05-09T03:58:54.689Z,8.30
2019-05-09T04:01:24.799Z,10.35
2019-05-09T04:03:54.988Z,9.00
2019-05-09T04:06:25.127Z,7.47
2019-05-09T04:08:55.262Z,5.78
2019-05-09T04:11:27.522Z,6.83
2019-05-09T04:13:58.734Z,6.83
2019-05-09T04:16:28.880Z,5.37
2019-05-09T04:18:58.945Z,6.05
2019-05-09T04:21:28.974Z,5.65
2019-05-09T04:23:59.142Z,5.45
2019-05-09T04:26:43.054Z,5.97
2019-05-09T04:29:13.089Z,6.05
2019-05-09T04:31:43.194Z,5.75
2019-05-09T04:34:13.186Z,4.65
2019-05-09T04:36:43.337Z,5.90
2019-05-09T04:39:20.926Z,4.58
2019-05-09T04:41:45.605Z,3.85
2019-05-09T04:44:21.354Z,4.03
2019-05-09T04:46:49.088Z,3.47
2019-05-09T04:49:22.053Z,3.35
2019-05-09T04:52:01.107Z,3.60
2019-05-09T04:54:31.162Z,2.20
2019-05-09T04:57:01.348Z,3.20
2019-05-09T04:59:31.417Z,2.80
2019-05-09T05:02:04.077Z,3.20
2019-05-09T05:04:34.222Z,2.72
2019-05-09T05:07:04.457Z,3.33
2019-05-09T05:09:34.771Z,3.20
2019-05-09T05:12:04.869Z,3.35
2019-05-09T05:14:35.171Z,4.45
2019-05-09T05:17:10.163Z,4.15
2019-05-09T05:22:12.670Z,3.98
2019-05-09T05:24:44.433Z,4.28
2019-05-09T05:27:14.657Z,4.03
2019-05-09T05:29:44.890Z,3.77
2019-05-09T05:32:17.783Z,3.75
2019-05-09T05:35:07.589Z,3.83
2019-05-09T05:37:38.921Z,3.30
2019-05-09T05:40:09.199Z,3.37
2019-05-09T05:42:39.227Z,3.45
2019-05-09T05:45:10.474Z,3.33
2019-05-09T05:47:48.514Z,2.98
2019-05-09T05:50:18.878Z,3.50
2019-05-09T05:52:48.838Z,3.10
2019-05-09T05:55:19.019Z,3.87
2019-05-09T05:57:49.038Z,2.92
2019-05-09T06:00:23.026Z,3.47
2019-05-09T06:02:53.010Z,3.33
2019-05-09T06:05:23.212Z,3.65
2019-05-09T06:07:54.536Z,3.60
2019-05-09T06:10:24.729Z,3.92
2019-05-09T06:12:57.369Z,4.12
2019-05-09T06:15:28.872Z,3.12
2019-05-09T06:18:00.113Z,2.90
2019-05-09T06:20:30.325Z,3.33
2019-05-09T06:23:00.516Z,3.42
2019-05-09T06:25:31.314Z,3.65
2019-05-09T06:28:01.543Z,3.77
2019-05-09T06:30:31.859Z,3.40
2019-05-09T06:33:04.871Z,3.17
2019-05-09T06:35:34.187Z,2.62
2019-05-09T06:38:04.262Z,2.87
2019-05-09T06:40:34.343Z,2.85
2019-05-09T06:43:24.306Z,3.42
2019-05-09T06:46:02.362Z,2.98
2019-05-09T06:48:32.628Z,2.47
2019-05-09T06:51:02.861Z,2.42
2019-05-09T06:53:32.946Z,2.72
2019-05-09T06:56:03.071Z,2.72
2019-05-09T06:58:34.674Z,2.75
2019-05-09T07:01:18.386Z,2.95
2019-05-09T07:03:51.378Z,2.83
2019-05-09T07:06:39.249Z,2.58
2019-05-09T07:09:23.076Z,2.20
2019-05-09T07:11:53.249Z,2.15
2019-05-09T07:14:33.175Z,2.20
2019-05-09T07:17:02.635Z,2.42
2019-05-09T07:19:32.657Z,1.95
2019-05-09T07:22:20.670Z,2.30
2019-05-09T07:25:11.151Z,1.90
2019-05-09T07:27:42.264Z,2.10
2019-05-09T07:30:17.838Z,2.42
2019-05-09T07:33:05.606Z,2.33
2019-05-09T07:35:38.015Z,2.60
2019-05-09T07:38:08.546Z,2.12
2019-05-09T07:40:39.941Z,2.45
2019-05-09T07:43:10.043Z,1.75
2019-05-09T07:45:41.669Z,1.60
2019-05-09T07:48:11.817Z,1.80
2019-05-09T07:50:41.998Z,1.80
2019-05-09T07:53:13.397Z,1.77
2019-05-09T07:55:43.581Z,2.25
2019-05-09T07:58:14.417Z,2.40
2019-05-09T08:00:44.796Z,1.70
2019-05-09T08:03:14.997Z,2.20
2019-05-09T08:05:47.578Z,1.90
2019-05-09T08:10:47.858Z,2.08
2019-05-09T08:13:21.337Z,1.90
2019-05-09T08:15:49.663Z,1.77
2019-05-09T08:18:19.839Z,2.15
2019-05-09T08:20:50.045Z,2.12
2019-05-09T08:23:21.227Z,2.25
2019-05-09T08:25:51.404Z,2.15
2019-05-09T08:28:21.720Z,1.90
2019-05-09T08:30:51.874Z,1.62
2019-05-09T08:33:22.020Z,1.95
2019-05-09T08:35:52.821Z,1.60
2019-05-09T08:38:23.043Z,1.53
2019-05-09T08:41:09.605Z,1.87
2019-05-09T08:43:40.942Z,2.10
2019-05-09T08:46:11.051Z,2.12
2019-05-09T08:48:41.251Z,1.70
2019-05-09T08:51:12.979Z,2.02
2019-05-09T08:53:43.305Z,2.75
2019-05-09T08:56:13.574Z,3.25
2019-05-09T08:58:43.800Z,4.87
2019-05-09T09:01:13.997Z,5.95
2019-05-09T09:03:43.981Z,5.15
2019-05-09T09:06:14.181Z,2.15
2019-05-09T09:08:44.265Z,2.60
2019-05-09T09:11:14.339Z,3.45
2019-05-09T09:13:44.401Z,4.55
2019-05-09T09:16:19.977Z,5.53
2019-05-09T09:18:48.060Z,2.60
2019-05-09T09:21:18.458Z,2.45
2019-05-09T09:23:50.735Z,2.40
2019-05-09T09:26:20.408Z,2.67
2019-05-09T09:28:50.570Z,2.65
2019-05-09T09:31:20.768Z,2.37
2019-05-09T09:33:50.757Z,2.00
2019-05-09T09:36:20.875Z,2.08
2019-05-09T09:38:50.869Z,2.90
2019-05-09T09:41:20.906Z,3.33
2019-05-09T09:43:51.085Z,3.30
2019-05-09T09:46:21.122Z,4.00
2019-05-09T09:48:51.348Z,5.62
2019-05-09T09:51:21.425Z,5.25
2019-05-09T09:53:53.613Z,5.20
2019-05-09T09:56:23.673Z,8.63
2019-05-09T09:58:57.554Z,8.55
2019-05-09T10:01:29.016Z,6.72
2019-05-09T10:04:19.846Z,6.28
2019-05-09T10:06:41.977Z,5.53
2019-05-09T10:09:13.406Z,7.28
2019-05-09T10:11:43.611Z,3.17
2019-05-09T10:14:15.365Z,3.50
2019-05-09T10:16:50.089Z,3.67
2019-05-09T10:19:31.099Z,3.30
2019-05-09T10:22:08.270Z,3.35
2019-05-09T10:24:37.370Z,3.72
2019-05-09T10:27:09.237Z,3.12
2019-05-09T10:29:39.707Z,3.22
2019-05-09T10:32:13.820Z,3.15
2019-05-09T10:34:43.977Z,2.52
2019-05-09T10:37:14.251Z,3.15
2019-05-09T10:39:45.554Z,3.17
2019-05-09T10:42:28.431Z,3.17
2019-05-09T10:45:02.810Z,3.17
2019-05-09T10:47:34.583Z,4.80
2019-05-09T10:50:08.336Z,4.00
2019-05-09T10:52:37.858Z,4.70
2019-05-09T10:55:09.053Z,4.80
2019-05-09T10:57:42.222Z,3.52
2019-05-09T11:02:40.706Z,3.98
2019-05-09T11:05:10.894Z,4.53
2019-05-09T11:07:41.114Z,4.08
2019-05-09T11:10:24.597Z,5.45
2019-05-09T11:12:43.072Z,6.20
2019-05-09T11:15:13.274Z,4.42
2019-05-09T11:17:43.473Z,5.15
2019-05-09T11:20:13.644Z,4.12
2019-05-09T11:22:43.879Z,6.20
2019-05-09T11:25:14.082Z,9.93
2019-05-09T11:27:44.438Z,9.95
2019-05-09T11:30:14.522Z,8.60
2019-05-09T11:32:44.604Z,9.68
2019-05-09T11:35:14.880Z,11.97
2019-05-09T11:37:44.975Z,8.33
2019-05-09T11:40:15.139Z,9.10
2019-05-09T11:42:45.242Z,6.25
2019-05-09T11:45:17.744Z,4.00
2019-05-09T11:47:47.030Z,5.40
2019-05-09T11:50:22.516Z,6.58
2019-05-09T11:52:49.227Z,8.03
2019-05-09T11:55:29.743Z,9.85
2019-05-09T11:57:51.195Z,10.00
2019-05-09T12:00:21.405Z,12.05
2019-05-09T12:02:51.393Z,10.28
2019-05-09T12:05:21.439Z,6.95
2019-05-09T12:07:51.652Z,6.08
2019-05-09T12:10:21.686Z,7.00
2019-05-09T12:12:51.887Z,6.12
2019-05-09T12:15:21.965Z,6.25
2019-05-09T12:17:58.164Z,7.20
2019-05-09T12:20:23.814Z,8.78
2019-05-09T12:22:53.894Z,9.00
2019-05-09T12:25:23.907Z,10.43
2019-05-09T12:27:53.965Z,12.60
2019-05-09T12:30:24.085Z,15.85
2019-05-09T12:32:54.188Z,15.45
2019-05-09T12:35:24.258Z,18.23
2019-05-09T12:37:54.385Z,14.85
2019-05-09T12:40:24.585Z,16.62
2019-05-09T12:42:54.726Z,19.17
2019-05-09T12:45:24.958Z,14.87
2019-05-09T12:48:07.464Z,16.12
2019-05-09T12:50:29.290Z,20.55
2019-05-09T12:55:28.410Z,18.15
2019-05-09T12:57:59.491Z,13.10
2019-05-09T13:00:29.882Z,8.98
2019-05-09T13:03:00.114Z,8.30
2019-05-09T13:05:31.025Z,9.65
2019-05-09T13:08:01.097Z,8.00
2019-05-09T13:10:31.258Z,7.62
2019-05-09T13:13:01.451Z,6.33
2019-05-09T13:15:33.110Z,6.28
2019-05-09T13:18:03.272Z,7.42
2019-05-09T13:20:34.177Z,5.78
2019-05-09T13:23:04.358Z,12.55
2019-05-09T13:25:34.565Z,17.92
2019-05-09T13:28:04.684Z,19.95
2019-05-09T13:30:34.762Z,14.35
2019-05-09T13:33:08.142Z,15.80
2019-05-09T13:35:39.148Z,17.98
2019-05-09T13:38:08.840Z,19.40
2019-05-09T13:40:39.920Z,21.73
2019-05-09T13:43:09.925Z,30.90
2019-05-09T13:45:39.871Z,35.30
2019-05-09T13:48:26.456Z,41.68
2019-05-09T13:50:41.690Z,44.00
2019-05-09T13:53:11.828Z,42.17
2019-05-09T13:55:42.044Z,44.55
2019-05-09T13:58:12.182Z,47.33
2019-05-09T14:00:56.710Z,47.73
2019-05-09T14:03:17.935Z,50.28
2019-05-09T14:05:48.077Z,51.85
2019-05-09T14:08:18.553Z,52.00
2019-05-09T14:10:48.638Z,45.58
2019-05-09T14:13:19.149Z,33.28
2019-05-09T14:15:49.365Z,33.20
2019-05-09T14:18:19.503Z,22.40
2019-05-09T14:20:49.566Z,21.95
2019-05-09T14:23:19.798Z,12.78
2019-05-09T14:25:51.999Z,8.68
2019-05-09T14:28:21.958Z,11.22
2019-05-09T14:30:52.118Z,7.78
2019-05-09T14:33:22.280Z,5.40
2019-05-09T14:35:52.406Z,5.40
2019-05-09T14:38:22.508Z,3.72
2019-05-09T14:40:52.793Z,4.50
2019-05-09T14:43:22.905Z,4.95
2019-05-09T14:45:52.914Z,3.80
2019-05-09T14:48:23.067Z,3.12
2019-05-09T14:50:53.262Z,5.15
2019-05-09T14:53:23.443Z,3.60
2019-05-09T14:55:53.575Z,2.87
2019-05-09T14:58:23.764Z,2.55
2019-05-09T15:00:53.940Z,3.80
2019-05-09T15:03:23.974Z,2.98
2019-05-09T15:05:54.026Z,3.98
2019-05-09T15:08:24.223Z,3.22
2019-05-09T15:10:54.299Z,3.10
2019-05-09T15:13:24.417Z,3.17
2019-05-09T15:15:54.490Z,3.62
2019-05-09T15:18:24.641Z,3.02
2019-05-09T15:20:54.807Z,3.80
2019-05-09T15:23:24.904Z,4.05
2019-05-09T15:25:57.970Z,2.72
2019-05-09T15:28:29.145Z,3.37
2019-05-09T15:30:59.500Z,3.30
2019-05-09T15:33:29.928Z,3.27
2019-05-09T15:36:00.143Z,3.45
2019-05-09T15:38:30.192Z,3.95
2019-05-09T15:41:00.418Z,3.87
2019-05-09T15:43:30.497Z,3.00
2019-05-09T15:46:08.493Z,3.10
2019-05-09T15:48:38.470Z,3.17
2019-05-09T15:51:08.675Z,3.22
2019-05-09T15:53:38.794Z,3.70
2019-05-09T15:56:08.993Z,2.62
2019-05-09T15:58:39.121Z,2.75
2019-05-09T16:01:09.279Z,2.55
2019-05-09T16:03:39.395Z,3.22
2019-05-09T16:06:09.607Z,3.30
2019-05-09T16:08:39.781Z,3.42
2019-05-09T16:11:12.500Z,3.37
2019-05-09T16:13:42.663Z,3.50
2019-05-09T16:16:13.721Z,3.10
2019-05-09T16:18:44.517Z,3.33
2019-05-09T16:21:17.318Z,4.87
2019-05-09T16:23:48.628Z,3.22
2019-05-09T16:26:18.969Z,3.35
2019-05-09T16:28:49.049Z,3.30
2019-05-09T16:31:19.241Z,3.00
2019-05-09T16:33:49.486Z,2.98
2019-05-09T16:36:19.630Z,2.90
2019-05-09T16:38:49.814Z,3.60
2019-05-09T16:41:20.009Z,3.25
2019-05-09T16:43:50.264Z,3.85
2019-05-09T16:46:20.501Z,3.72
2019-05-09T16:48:50.683Z,4.25
2019-05-09T16:51:20.867Z,4.42
2019-05-09T16:53:51.061Z,4.58
2019-05-09T16:56:21.178Z,4.92
2019-05-09T16:58:51.343Z,5.30
2019-05-09T17:01:21.425Z,5.17
2019-05-09T17:03:51.667Z,4.78
2019-05-09T17:06:23.345Z,4.37
2019-05-09T17:08:53.534Z,3.80
2019-05-09T17:11:23.739Z,4.70
2019-05-09T17:13:53.832Z,3.87
2019-05-09T17:16:23.991Z,3.70
2019-05-09T17:18:54.182Z,4.40
2019-05-09T17:21:32.702Z,4.55
2019-05-09T17:24:05.503Z,5.15
2019-05-09T17:26:37.822Z,5.12
2019-05-09T17:29:07.384Z,5.20
2019-05-09T17:31:38.350Z,6.25
2019-05-09T17:34:08.895Z,7.10
2019-05-09T17:36:39.623Z,7.30
2019-05-09T17:39:09.869Z,6.78
2019-05-09T17:41:40.121Z,9.30
2019-05-09T17:44:10.437Z,9.43
2019-05-09T17:46:40.530Z,9.40
2019-05-09T17:49:10.739Z,10.48
2019-05-09T17:51:40.917Z,9.05
2019-05-09T17:54:11.036Z,11.63
2019-05-09T17:56:43.267Z,11.08
2019-05-09T17:59:14.650Z,10.15
2019-05-09T18:01:44.720Z,11.50
2019-05-09T18:04:14.916Z,12.25
2019-05-09T18:06:45.226Z,11.35
2019-05-09T18:09:18.794Z,9.58
2019-05-09T18:11:48.822Z,7.60
2019-05-09T18:14:18.892Z,8.10
2019-05-09T18:16:49.065Z,9.53
2019-05-09T18:19:19.147Z,6.37
2019-05-09T18:21:51.233Z,5.45
2019-05-09T18:24:21.550Z,4.75
2019-05-09T18:26:52.085Z,4.75
2019-05-09T18:29:22.150Z,4.65
2019-05-09T18:32:10.541Z,4.33
2019-05-09T18:34:40.749Z,4.72
2019-05-09T18:37:10.962Z,4.58
2019-05-09T18:39:41.141Z,4.33
2019-05-09T18:42:11.272Z,4.00
2019-05-09T18:44:41.457Z,4.05
2019-05-09T18:47:11.546Z,4.70
2019-05-09T18:49:43.410Z,3.95
2019-05-09T18:54:42.773Z,4.17
2019-05-09T18:57:12.888Z,3.85
2019-05-09T18:59:43.034Z,4.05
2019-05-09T19:02:13.210Z,3.87
2019-05-09T19:04:43.270Z,4.75
2019-05-09T19:07:22.007Z,5.35
2019-05-09T19:09:45.120Z,4.58
2019-05-09T19:12:15.272Z,4.17
2019-05-09T19:14:46.655Z,5.50
2019-05-09T19:17:21.105Z,4.33
2019-05-09T19:20:01.834Z,3.90
2019-05-09T19:22:31.940Z,5.65
2019-05-09T19:25:02.040Z,4.53
2019-05-09T19:30:03.005Z,3.77
2019-05-09T19:32:33.155Z,4.20
2019-05-09T19:35:03.519Z,4.53
2019-05-09T19:37:33.761Z,4.75
2019-05-09T19:40:08.063Z,3.83
2019-05-09T19:42:38.265Z,4.28
2019-05-09T19:45:08.438Z,4.50
2019-05-09T19:47:38.625Z,4.75
2019-05-09T19:50:09.003Z,4.42
2019-05-09T19:52:39.108Z,4.80
2019-05-09T19:55:09.309Z,4.60
2019-05-09T19:57:39.469Z,5.67
2019-05-09T20:00:10.192Z,5.67
2019-05-09T20:02:41.077Z,6.00
2019-05-09T20:05:11.293Z,6.37
2019-05-09T20:07:41.421Z,6.20
2019-05-09T20:10:13.173Z,5.47
2019-05-09T20:12:47.581Z,7.03
2019-05-09T20:15:19.293Z,7.75
2019-05-09T20:17:49.317Z,6.70
2019-05-09T20:20:19.375Z,6.55
2019-05-09T20:22:52.899Z,5.55
2019-05-09T20:25:21.290Z,5.40
2019-05-09T20:27:51.506Z,5.90
2019-05-09T20:30:21.666Z,5.95
2019-05-09T20:32:51.833Z,6.83
2019-05-09T20:35:21.968Z,5.33
2019-05-09T20:37:52.325Z,5.92
2019-05-09T20:40:22.598Z,5.53
2019-05-09T20:42:52.948Z,5.45
2019-05-09T20:45:23.317Z,5.90
2019-05-09T20:47:53.801Z,5.08
2019-05-09T20:50:24.158Z,5.85
2019-05-09T20:53:08.420Z,5.85
2019-05-09T20:57:55.644Z,5.83
2019-05-09T21:00:26.093Z,5.78
2019-05-09T21:02:56.352Z,5.45
2019-05-09T21:05:26.713Z,5.95
2019-05-09T21:07:57.073Z,5.10
2019-05-09T21:10:27.467Z,5.05
2019-05-09T21:12:57.749Z,5.22
2019-05-09T21:15:28.102Z,5.87
2019-05-09T21:17:58.354Z,4.45
2019-05-09T21:20:28.606Z,6.85
2019-05-09T21:22:59.593Z,4.72
2019-05-09T21:25:33.182Z,7.83
2019-05-09T21:28:01.992Z,6.72
2019-05-09T21:30:32.383Z,9.88
2019-05-09T21:33:02.813Z,16.02
2019-05-09T21:35:32.949Z,16.42
2019-05-09T21:38:03.086Z,20.12
2019-05-09T21:40:33.120Z,19.60
2019-05-09T21:43:03.303Z,22.30
2019-05-09T21:45:33.529Z,24.92
2019-05-09T21:48:03.706Z,22.48
2019-05-09T21:50:33.793Z,18.80
2019-05-09T21:53:03.839Z,18.98
2019-05-09T21:55:33.896Z,20.62
2019-05-09T21:58:04.163Z,18.98
2019-05-09T22:00:36.535Z,17.05
2019-05-09T22:03:07.290Z,14.65
2019-05-09T22:05:37.896Z,12.43
2019-05-09T22:08:08.289Z,10.63
2019-05-09T22:10:38.400Z,9.03
2019-05-09T22:13:08.617Z,10.03
2019-05-09T22:15:38.692Z,10.08
2019-05-09T22:18:08.786Z,8.73
2019-05-09T22:20:39.345Z,9.75
2019-05-09T22:23:09.462Z,9.55
2019-05-09T22:25:39.645Z,11.12
2019-05-09T22:28:09.981Z,9.70
2019-05-09T22:30:40.012Z,9.90
2019-05-09T22:33:10.179Z,9.20
2019-05-09T22:35:40.364Z,10.08
2019-05-09T22:38:10.410Z,9.28
2019-05-09T22:40:40.545Z,9.90
2019-05-09T22:43:10.774Z,9.80
2019-05-09T22:45:40.931Z,8.20
2019-05-09T22:48:11.092Z,6.87
2019-05-09T22:50:41.261Z,7.55
2019-05-09T22:53:11.437Z,7.72
2019-05-09T22:55:41.478Z,8.50
2019-05-09T22:58:11.677Z,6.80
2019-05-09T23:00:41.866Z,7.87
2019-05-09T23:03:11.991Z,7.75
2019-05-09T23:05:43.360Z,8.30
2019-05-09T23:08:13.553Z,7.42
2019-05-09T23:10:43.599Z,11.03
2019-05-09T23:13:13.769Z,9.40
2019-05-09T23:15:43.972Z,10.40
2019-05-09T23:18:14.023Z,10.35
2019-05-09T23:20:45.691Z,10.35
2019-05-09T23:23:26.629Z,11.95
2019-05-09T23:25:57.013Z,11.28
2019-05-09T23:28:28.394Z,9.80
2019-05-09T23:31:00.029Z,10.60
2019-05-09T23:33:31.655Z,10.10
2019-05-09T23:36:01.821Z,11.33
2019-05-09T23:38:31.999Z,11.30
2019-05-09T23:41:02.113Z,12.28
2019-05-09T23:43:32.189Z,11.68
2019-05-09T23:46:02.270Z,10.60
2019-05-09T23:48:32.375Z,11.28
2019-05-09T23:51:02.557Z,13.43
2019-05-09T23:53:38.599Z,9.70
2019-05-09T23:56:26.565Z,12.07
2019-05-09T23:59:14.653Z,9.65
